Time;durP1;ratioP1;P1;durP2;ratioP2;P2;SDS_P1;SDS_P2;PMS_P1;PMS_P2;Temp;Humidity;BMP_temperature;BMP_pressure;BME280_temperature;BME280_humidity;BME280_pressure;Samples;Min_cycle;Max_cycle;Signal;HPM_P1;HPM_P2
2021/07/19 00:00:56;;;;;;;7.63;3.95;;;22.90;79.60;;;;;;5070482;28;20206;-73
2021/07/19 00:03:22;;;;;;;5.90;4.03;;;22.90;79.80;;;;;;5044888;28;20347;-74
2021/07/19 00:05:49;;;;;;;11.68;4.03;;;22.80;79.80;;;;;;5067831;28;21004;-73
2021/07/19 00:08:16;;;;;;;7.68;3.63;;;22.80;80.10;;;;;;5037692;28;20214;-73
2021/07/19 00:10:44;;;;;;;7.25;3.88;;;22.80;80.20;;;;;;5057597;28;20295;-73
2021/07/19 00:13:12;;;;;;;12.32;4.20;;;22.80;80.40;;;;;;5061147;28;20202;-73
2021/07/19 00:15:39;;;;;;;12.10;4.18;;;22.80;80.50;;;;;;5063384;28;20207;-74
2021/07/19 00:18:05;;;;;;;7.75;3.97;;;22.70;80.50;;;;;;5061400;28;20642;-71
2021/07/19 00:20:32;;;;;;;5.90;3.53;;;22.70;80.60;;;;;;5061405;28;20209;-70
2021/07/19 00:23:00;;;;;;;9.13;4.20;;;22.70;80.70;;;;;;5061137;28;20207;-72
2021/07/19 00:25:26;;;;;;;8.95;4.07;;;22.70;80.70;;;;;;5069325;28;20216;-73
2021/07/19 00:27:56;;;;;;;10.02;4.32;;;22.70;80.90;;;;;;5040499;28;20633;-71
2021/07/19 00:30:24;;;;;;;12.98;4.13;;;22.60;81.00;;;;;;5069973;28;20205;-73
2021/07/19 00:32:51;;;;;;;8.65;4.10;;;22.60;81.30;;;;;;5067406;28;20252;-72
2021/07/19 00:35:18;;;;;;;10.32;4.28;;;22.60;81.40;;;;;;5042216;28;20203;-73
2021/07/19 00:37:45;;;;;;;12.20;4.05;;;22.50;81.50;;;;;;5042119;28;20686;-72
2021/07/19 00:40:16;;;;;;;8.70;4.65;;;22.50;81.60;;;;;;5069657;28;20205;-73
2021/07/19 00:42:46;;;;;;;8.40;4.00;;;22.50;81.70;;;;;;5049960;28;20202;-72
2021/07/19 00:45:17;;;;;;;7.72;4.20;;;22.40;81.90;;;;;;5047340;28;20221;-72
2021/07/19 00:47:44;;;;;;;10.38;4.22;;;22.40;81.90;;;;;;5057345;28;20286;-72
2021/07/19 00:50:13;;;;;;;11.38;4.45;;;22.40;82.10;;;;;;5051489;28;20222;-72
2021/07/19 00:52:43;;;;;;;8.35;3.85;;;22.40;82.10;;;;;;5066060;28;20206;-74
2021/07/19 00:55:12;;;;;;;8.63;4.75;;;22.30;82.20;;;;;;5055155;28;20203;-74
2021/07/19 00:57:41;;;;;;;8.77;4.13;;;22.30;82.40;;;;;;5055982;28;20289;-73
2021/07/19 01:00:11;;;;;;;16.10;4.60;;;22.20;82.60;;;;;;5063452;28;20205;-72
2021/07/19 01:02:44;;;;;;;10.20;4.70;;;22.20;82.80;;;;;;5047717;28;20214;-73
2021/07/19 01:05:12;;;;;;;9.50;4.35;;;22.20;83.00;;;;;;5066604;28;20203;-71
2021/07/19 01:07:41;;;;;;;8.43;4.70;;;22.20;83.20;;;;;;5046905;28;20627;-71
2021/07/19 01:10:13;;;;;;;8.23;4.20;;;22.20;83.50;;;;;;5043113;28;20683;-72
2021/07/19 01:12:42;;;;;;;10.35;4.45;;;22.10;83.60;;;;;;5066707;28;20627;-71
2021/07/19 01:15:09;;;;;;;9.52;4.53;;;22.10;83.80;;;;;;5049922;28;20202;-73
2021/07/19 01:17:38;;;;;;;14.60;5.22;;;22.10;84.00;;;;;;5047225;28;20231;-72
2021/07/19 01:20:09;;;;;;;12.15;5.15;;;22.10;84.20;;;;;;5047068;28;20201;-71
2021/07/19 01:23:09;;;;;;;8.25;4.50;;;22.00;84.40;;;;;;5049356;28;20276;-71
2021/07/19 01:25:59;;;;;;;8.80;4.65;;;22.00;84.50;;;;;;5064348;28;20252;-69
2021/07/19 01:28:36;;;;;;;10.98;4.93;;;22.00;84.70;;;;;;5063143;28;20264;-74
2021/07/19 01:31:08;;;;;;;10.80;4.43;;;22.00;84.80;;;;;;5061738;28;20678;-73
2021/07/19 01:33:37;;;;;;;10.73;4.70;;;22.00;84.90;;;;;;5053147;28;20611;-72
2021/07/19 01:36:06;;;;;;;9.13;4.65;;;21.90;85.00;;;;;;5062298;28;20202;-70
2021/07/19 01:38:34;;;;;;;7.35;4.25;;;22.00;85.10;;;;;;5037679;28;20203;-71
2021/07/19 01:41:02;;;;;;;8.95;4.78;;;21.90;85.20;;;;;;5073345;28;20207;-73
2021/07/19 01:43:32;;;;;;;9.43;4.65;;;21.90;85.30;;;;;;5047025;28;20485;-71
2021/07/19 01:46:00;;;;;;;7.97;4.38;;;21.90;85.30;;;;;;5054336;28;20222;-73
2021/07/19 01:48:31;;;;;;;9.60;5.13;;;21.80;85.50;;;;;;5046346;28;20256;-71
2021/07/19 01:50:59;;;;;;;10.25;4.97;;;21.80;85.70;;;;;;5055354;28;20209;-73
2021/07/19 01:53:38;;;;;;;10.27;4.88;;;21.80;86.00;;;;;;5064667;28;20663;-71
2021/07/19 01:56:06;;;;;;;9.70;4.88;;;21.70;85.90;;;;;;5047740;28;20293;-71
2021/07/19 01:58:35;;;;;;;11.35;4.97;;;21.70;86.10;;;;;;5048146;28;20291;-74
2021/07/19 02:01:09;;;;;;;10.65;4.93;;;21.70;86.30;;;;;;5049883;28;20252;-71
2021/07/19 02:03:37;;;;;;;10.63;4.72;;;21.70;86.50;;;;;;5049364;28;20208;-72
2021/07/19 02:06:08;;;;;;;9.88;4.75;;;21.60;86.70;;;;;;5054150;28;20618;-72
2021/07/19 02:08:37;;;;;;;8.32;4.68;;;21.60;86.80;;;;;;5050311;28;20249;-74
2021/07/19 02:11:13;;;;;;;8.15;5.10;;;21.60;87.00;;;;;;5066323;28;20199;-73
2021/07/19 02:13:44;;;;;;;11.63;5.07;;;21.60;87.10;;;;;;5052810;28;20202;-73
2021/07/19 02:16:13;;;;;;;9.77;5.43;;;21.60;87.30;;;;;;5050773;28;21240;-74
2021/07/19 02:18:45;;;;;;;10.45;5.78;;;21.60;87.60;;;;;;5052328;28;20241;-73
2021/07/19 02:21:13;;;;;;;12.65;5.03;;;21.50;87.80;;;;;;5053313;28;20717;-73
2021/07/19 02:24:02;;;;;;;15.10;5.47;;;21.50;88.00;;;;;;5067647;28;20285;-72
2021/07/19 02:26:37;;;;;;;9.13;5.10;;;21.40;88.10;;;;;;5050972;28;20203;-74
2021/07/19 02:29:06;;;;;;;10.85;5.38;;;21.40;88.20;;;;;;5051081;28;20221;-73
2021/07/19 02:31:33;;;;;;;8.15;5.38;;;21.40;88.40;;;;;;5054383;28;20685;-73
2021/07/19 02:34:02;;;;;;;10.70;6.00;;;21.30;88.60;;;;;;5041787;28;20209;-71
2021/07/19 02:36:30;;;;;;;8.52;5.70;;;21.30;88.80;;;;;;5048507;28;20203;-71
2021/07/19 02:38:59;;;;;;;10.50;5.50;;;21.20;89.00;;;;;;5048768;28;20226;-73
2021/07/19 02:41:28;;;;;;;8.73;5.45;;;21.20;89.20;;;;;;5066925;28;20197;-72
2021/07/19 02:44:04;;;;;;;10.27;5.50;;;21.20;89.20;;;;;;5047820;28;20206;-72
2021/07/19 02:46:51;;;;;;;14.55;6.50;;;21.20;89.30;;;;;;5050258;28;20305;-73
2021/07/19 02:49:19;;;;;;;11.48;6.07;;;21.10;89.40;;;;;;5059598;28;20218;-74
2021/07/19 02:51:51;;;;;;;8.32;5.35;;;21.20;89.60;;;;;;5049338;28;20738;-73
2021/07/19 02:54:20;;;;;;;10.52;5.70;;;21.10;89.50;;;;;;5043776;28;20195;-72
2021/07/19 02:56:49;;;;;;;8.40;5.05;;;21.10;89.60;;;;;;5049914;28;20294;-72
2021/07/19 02:59:16;;;;;;;10.10;5.65;;;21.10;89.80;;;;;;5046690;28;20218;-71
2021/07/19 03:01:55;;;;;;;13.82;5.63;;;21.10;90.00;;;;;;5043370;28;20252;-73
2021/07/19 03:04:23;;;;;;;9.07;5.40;;;21.10;90.00;;;;;;5048992;28;20208;-72
2021/07/19 03:06:51;;;;;;;11.10;5.65;;;21.10;90.10;;;;;;5053700;28;20293;-70
2021/07/19 03:09:24;;;;;;;13.50;6.38;;;21.10;90.20;;;;;;5060757;28;20264;-70
2021/07/19 03:11:53;;;;;;;9.18;5.65;;;21.00;90.20;;;;;;5047049;28;20692;-71
2021/07/19 03:14:26;;;;;;;10.18;5.60;;;21.10;90.40;;;;;;5062641;28;20285;-70
2021/07/19 03:17:04;;;;;;;14.63;6.10;;;21.00;90.40;;;;;;5047180;28;20226;-72
2021/07/19 03:19:33;;;;;;;14.40;6.20;;;21.00;90.50;;;;;;5044883;28;20194;-74
2021/07/19 03:22:01;;;;;;;15.90;6.70;;;20.90;90.60;;;;;;5068598;28;20226;-72
2021/07/19 03:24:48;;;;;;;14.77;6.68;;;20.90;90.70;;;;;;5068914;28;20675;-73
2021/07/19 03:27:18;;;;;;;19.08;6.55;;;20.90;90.70;;;;;;5050812;28;20217;-72
2021/07/19 03:29:46;;;;;;;12.45;6.68;;;20.90;90.80;;;;;;5049165;28;20219;-73
2021/07/19 03:32:19;;;;;;;10.98;6.25;;;20.90;90.80;;;;;;5068431;28;20239;-73
2021/07/19 03:34:48;;;;;;;14.98;6.80;;;20.80;90.90;;;;;;5053913;28;20206;-73
2021/07/19 03:37:16;;;;;;;14.30;7.00;;;20.80;90.90;;;;;;5066580;28;20325;-73
2021/07/19 03:39:46;;;;;;;17.02;6.75;;;20.80;91.00;;;;;;5049621;28;20198;-72
2021/07/19 03:42:20;;;;;;;14.63;6.70;;;20.80;91.10;;;;;;5061714;28;20206;-71
2021/07/19 03:44:53;;;;;;;12.77;6.40;;;20.80;91.20;;;;;;5049305;28;20292;-73
2021/07/19 03:47:24;;;;;;;16.23;7.05;;;20.80;91.20;;;;;;5050813;28;20207;-71
2021/07/19 03:49:55;;;;;;;12.60;6.20;;;20.70;91.20;;;;;;5043198;28;20309;-71
2021/07/19 03:52:23;;;;;;;9.63;5.95;;;20.70;91.30;;;;;;5060240;28;20217;-69
2021/07/19 03:54:50;;;;;;;14.70;6.95;;;20.70;91.40;;;;;;5066396;28;20202;-71
2021/07/19 03:57:19;;;;;;;13.23;7.10;;;20.70;91.40;;;;;;5049043;28;20203;-72
2021/07/19 03:59:48;;;;;;;13.60;6.75;;;20.60;91.50;;;;;;5040268;28;20285;-69
2021/07/19 04:02:26;;;;;;;15.77;7.97;;;20.60;91.60;;;;;;5046298;28;20202;-73
2021/07/19 04:05:03;;;;;;;15.02;7.72;;;20.70;91.70;;;;;;5070060;28;20203;-71
2021/07/19 04:07:31;;;;;;;11.55;7.18;;;20.70;91.80;;;;;;5041126;28;20206;-72
2021/07/19 04:09:58;;;;;;;10.07;6.55;;;20.60;91.90;;;;;;5066292;28;20210;-71
2021/07/19 04:12:26;;;;;;;14.30;6.53;;;20.60;91.90;;;;;;5067559;28;20269;-72
2021/07/19 04:14:54;;;;;;;8.88;5.95;;;20.70;92.00;;;;;;5052069;28;20669;-73
2021/07/19 04:17:23;;;;;;;9.88;5.93;;;20.70;92.10;;;;;;5047940;28;20313;-72
2021/07/19 04:19:53;;;;;;;14.85;7.20;;;20.70;92.10;;;;;;5048305;28;20663;-73
2021/07/19 04:22:20;;;;;;;13.95;6.32;;;20.70;92.20;;;;;;5039296;28;20229;-74
2021/07/19 04:25:05;;;;;;;10.90;5.97;;;20.70;92.20;;;;;;5044614;28;20289;-74
2021/07/19 04:27:34;;;;;;;12.57;6.40;;;20.60;92.20;;;;;;5042254;28;20700;-75
2021/07/19 04:30:07;;;;;;;13.10;5.78;;;20.60;92.30;;;;;;5059763;28;20212;-74
2021/07/19 04:32:49;;;;;;;12.50;5.95;;;20.60;92.30;;;;;;5040840;28;20600;-72
2021/07/19 04:35:21;;;;;;;12.95;6.45;;;20.60;92.50;;;;;;5035975;28;20207;-72
2021/07/19 04:37:52;;;;;;;10.25;6.10;;;20.60;92.60;;;;;;5038626;28;20230;-73
2021/07/19 04:40:22;;;;;;;12.52;6.70;;;20.60;92.70;;;;;;5054648;28;20191;-72
2021/07/19 04:42:49;;;;;;;8.45;5.75;;;20.60;92.70;;;;;;5061295;28;20205;-72
2021/07/19 04:45:19;;;;;;;11.85;6.43;;;20.60;92.80;;;;;;5066117;28;20203;-72
